KBURKPSP

Guest
Details From KBUR - BOB HOPE
To KPSP - Palm Springs Intl
Flight Number -
Tags generated
Created
Modified
Stats Distance 95 nm / 176 km
Max Altitude 9,400 ft / 2,865 m
Waypoints 3
Social Downloads 4
Likes 0
Share VATSIM

Download

Looking for another format? Having issues loading an existing format? Contact us
Advertisement - Login to hide

Notes

Basic altitude profile: - Ascent Rate: 2500ft/min - Ascent Speed: 250kts - Cruise Altitude: 35000ft - Cruise Speed: 420kts - Descent Rate: 1500ft/min - Descent Speed: 250kts Options: - Use NATs: yes - Use PACOTS: yes - Use low airways: yes - Use high airways: yes

Route

KBUR POM KPSP

ID Type Via Altitude Latitude Longitude Leg Dist Tot Dist Heading (true) Name
O KBUR APT - 0 ft / 0 m 34.20048˚ -118.35877˚ - 0 nm - BOB HOPE
POM VOR - 9,400 ft / 2,865 m 34.07839˚ -117.78708˚ 29 nm 29 nm 104° / 105° POMONA VORTAC
O KPSP APT - 0 ft / 0 m 33.82968˚ -116.50622˚ 65 nm 94 nm 103° / 104° Palm Springs Intl

Altitude Profile

Advertisement - Login to hide

KBUR

Details ICAO KBUR (BUR)
Name BOB HOPE
Region United States
Timezone America/Los_Angeles (UTC-8.0)
Stats Elevation 778 ft / 237 m (AMSL)
Location 34.200475° -118.358767°
Runways 2
Magnetic Variation 12.046° E

METAR

KBUR 170153Z 00000KT 10SM CLR 15/11 A2973 RMK AO2 SLP059 T01500106

Decode

TAF

TAF AMD KBUR 170258Z 1703/1724 34005KT P6SM SKC FM170700 03012KT P6SM SKC WS010/04035KT FM172000 VRB03KT P6SM SKC

Decode

Departure Runways

ID Width Length Bearing (true) Bearing (mag) Surface Threshold Offset Overrun Length
08 151 ft / 46 m 5,835 ft / 1,779 m 90.92° 78.87° Asphalt 0 ft / 0 m 259 ft / 79 m
15 151 ft / 46 m 6,962 ft / 2,122 m 167.12° 155.07° Asphalt 909 ft / 277 m 0 ft / 0 m
26 151 ft / 46 m 5,835 ft / 1,779 m 270.93° 258.88° Asphalt 0 ft / 0 m 253 ft / 77 m
33 151 ft / 46 m 6,962 ft / 2,122 m 347.12° 335.07° Asphalt 351 ft / 107 m 0 ft / 0 m

KPSP

Details ICAO KPSP (PSP)
Name Palm Springs Intl
Region United States
Timezone America/Los_Angeles (UTC-8.0)
Stats Elevation 477 ft / 145 m (AMSL)
Location 33.829677° -116.506218°
Runways 2
Magnetic Variation 11.579° E

METAR

KPSP 170153Z VRB03KT 10SM FEW110 18/M02 A2973 RMK AO2 SLP068 T01781022

Decode

TAF

KPSP 162322Z 1700/1724 VRB06KT P6SM BKN150 FM170400 32008G16KT P6SM SCT150 FM170800 32012G22KT P6SM FEW150 FM171900 01015G25KT P6SM SKC

Decode

Destination Runways

ID Width Length Bearing (true) Bearing (mag) Surface Threshold Offset Overrun Length
13L 75 ft / 23 m 4,958 ft / 1,511 m 143.52° 131.94° Asphalt 0 ft / 0 m 151 ft / 46 m
13R 151 ft / 46 m 10,012 ft / 3,052 m 143.52° 131.94° Asphalt 2,999 ft / 914 m 200 ft / 61 m
31L 151 ft / 46 m 10,012 ft / 3,052 m 323.53° 311.95° Asphalt 1,499 ft / 457 m 200 ft / 61 m
31R 75 ft / 23 m 4,958 ft / 1,511 m 323.53° 311.95° Asphalt 0 ft / 0 m 151 ft / 46 m

Popular Alternatives